sensor_id;sensor_type;location;lat;lon;timestamp;P1;durP1;ratioP1;P2;durP2;ratioP2
74170;SDS011;62526;50.948;6.590;2023-11-21T00:00:24;20.97;;;9.50;;
74170;SDS011;62526;50.948;6.590;2023-11-21T00:02:51;15.13;;;8.90;;
74170;SDS011;62526;50.948;6.590;2023-11-21T00:05:18;16.60;;;9.00;;
74170;SDS011;62526;50.948;6.590;2023-11-21T00:07:45;16.77;;;9.67;;
74170;SDS011;62526;50.948;6.590;2023-11-21T00:10:12;19.20;;;10.40;;
74170;SDS011;62526;50.948;6.590;2023-11-21T00:12:38;21.20;;;10.87;;
74170;SDS011;62526;50.948;6.590;2023-11-21T00:15:05;21.63;;;10.77;;
74170;SDS011;62526;50.948;6.590;2023-11-21T00:17:32;21.50;;;10.63;;
74170;SDS011;62526;50.948;6.590;2023-11-21T00:19:59;25.17;;;10.93;;
74170;SDS011;62526;50.948;6.590;2023-11-21T00:22:26;25.93;;;12.40;;
74170;SDS011;62526;50.948;6.590;2023-11-21T00:24:52;26.33;;;10.83;;
74170;SDS011;62526;50.948;6.590;2023-11-21T00:27:20;18.73;;;9.63;;
74170;SDS011;62526;50.948;6.590;2023-11-21T00:29:47;25.87;;;11.33;;
74170;SDS011;62526;50.948;6.590;2023-11-21T00:32:13;31.03;;;11.37;;
74170;SDS011;62526;50.948;6.590;2023-11-21T00:34:40;23.90;;;9.43;;
74170;SDS011;62526;50.948;6.590;2023-11-21T00:37:06;24.03;;;10.20;;
74170;SDS011;62526;50.948;6.590;2023-11-21T00:39:33;20.80;;;9.80;;
74170;SDS011;62526;50.948;6.590;2023-11-21T00:42:00;20.43;;;10.07;;
74170;SDS011;62526;50.948;6.590;2023-11-21T00:44:27;20.07;;;9.37;;
74170;SDS011;62526;50.948;6.590;2023-11-21T00:46:54;23.23;;;10.70;;
74170;SDS011;62526;50.948;6.590;2023-11-21T00:49:20;28.50;;;11.67;;
74170;SDS011;62526;50.948;6.590;2023-11-21T00:51:47;27.53;;;12.83;;
74170;SDS011;62526;50.948;6.590;2023-11-21T00:54:14;28.83;;;12.77;;
74170;SDS011;62526;50.948;6.590;2023-11-21T00:56:41;22.60;;;12.33;;
74170;SDS011;62526;50.948;6.590;2023-11-21T00:59:08;27.87;;;12.90;;
74170;SDS011;62526;50.948;6.590;2023-11-21T01:01:35;24.43;;;12.47;;
74170;SDS011;62526;50.948;6.590;2023-11-21T01:04:02;24.73;;;12.57;;
74170;SDS011;62526;50.948;6.590;2023-11-21T01:06:28;26.50;;;11.87;;
74170;SDS011;62526;50.948;6.590;2023-11-21T01:08:55;22.77;;;11.67;;
74170;SDS011;62526;50.948;6.590;2023-11-21T01:11:22;27.60;;;13.30;;
74170;SDS011;62526;50.948;6.590;2023-11-21T01:13:48;29.87;;;12.73;;
74170;SDS011;62526;50.948;6.590;2023-11-21T01:16:15;26.73;;;14.17;;
74170;SDS011;62526;50.948;6.590;2023-11-21T01:18:42;26.43;;;13.80;;
74170;SDS011;62526;50.948;6.590;2023-11-21T01:21:08;30.47;;;14.83;;
74170;SDS011;62526;50.948;6.590;2023-11-21T01:23:35;32.10;;;15.17;;
74170;SDS011;62526;50.948;6.590;2023-11-21T01:26:02;28.63;;;14.90;;
74170;SDS011;62526;50.948;6.590;2023-11-21T01:28:28;35.47;;;14.80;;
74170;SDS011;62526;50.948;6.590;2023-11-21T01:30:56;31.00;;;14.60;;
74170;SDS011;62526;50.948;6.590;2023-11-21T01:33:22;31.07;;;15.33;;
74170;SDS011;62526;50.948;6.590;2023-11-21T01:35:49;25.13;;;14.30;;
74170;SDS011;62526;50.948;6.590;2023-11-21T01:38:15;31.37;;;14.23;;
74170;SDS011;62526;50.948;6.590;2023-11-21T01:40:42;29.90;;;14.13;;
74170;SDS011;62526;50.948;6.590;2023-11-21T01:43:09;25.43;;;15.17;;
74170;SDS011;62526;50.948;6.590;2023-11-21T01:45:36;29.43;;;15.33;;
74170;SDS011;62526;50.948;6.590;2023-11-21T01:48:02;25.50;;;13.73;;
74170;SDS011;62526;50.948;6.590;2023-11-21T01:50:29;22.87;;;13.70;;
74170;SDS011;62526;50.948;6.590;2023-11-21T01:52:56;24.50;;;13.20;;
74170;SDS011;62526;50.948;6.590;2023-11-21T01:55:22;29.07;;;15.27;;
74170;SDS011;62526;50.948;6.590;2023-11-21T01:57:49;24.37;;;14.17;;
74170;SDS011;62526;50.948;6.590;2023-11-21T02:00:16;23.47;;;14.50;;
74170;SDS011;62526;50.948;6.590;2023-11-21T02:02:43;27.13;;;13.87;;
74170;SDS011;62526;50.948;6.590;2023-11-21T02:05:10;24.20;;;13.60;;
74170;SDS011;62526;50.948;6.590;2023-11-21T02:07:37;21.53;;;13.73;;
74170;SDS011;62526;50.948;6.590;2023-11-21T02:10:03;22.37;;;13.47;;
74170;SDS011;62526;50.948;6.590;2023-11-21T02:12:30;34.77;;;14.97;;
74170;SDS011;62526;50.948;6.590;2023-11-21T02:14:58;24.53;;;14.53;;
74170;SDS011;62526;50.948;6.590;2023-11-21T02:17:24;28.17;;;14.00;;
74170;SDS011;62526;50.948;6.590;2023-11-21T02:19:51;24.53;;;14.17;;
74170;SDS011;62526;50.948;6.590;2023-11-21T02:22:18;26.17;;;14.17;;
74170;SDS011;62526;50.948;6.590;2023-11-21T02:24:45;27.30;;;14.47;;
74170;SDS011;62526;50.948;6.590;2023-11-21T02:27:12;31.27;;;14.20;;
74170;SDS011;62526;50.948;6.590;2023-11-21T02:29:38;24.67;;;13.97;;
74170;SDS011;62526;50.948;6.590;2023-11-21T02:32:04;26.37;;;13.87;;
74170;SDS011;62526;50.948;6.590;2023-11-21T02:34:31;26.77;;;14.53;;
74170;SDS011;62526;50.948;6.590;2023-11-21T02:36:59;24.07;;;14.43;;
74170;SDS011;62526;50.948;6.590;2023-11-21T02:39:25;24.23;;;13.23;;
74170;SDS011;62526;50.948;6.590;2023-11-21T02:41:52;26.67;;;15.10;;
74170;SDS011;62526;50.948;6.590;2023-11-21T02:44:19;24.77;;;13.93;;
74170;SDS011;62526;50.948;6.590;2023-11-21T02:46:45;28.80;;;15.10;;
74170;SDS011;62526;50.948;6.590;2023-11-21T02:49:12;23.93;;;13.97;;
74170;SDS011;62526;50.948;6.590;2023-11-21T02:51:42;23.67;;;14.20;;
74170;SDS011;62526;50.948;6.590;2023-11-21T02:54:09;22.43;;;13.67;;
74170;SDS011;62526;50.948;6.590;2023-11-21T02:56:36;25.23;;;14.70;;
74170;SDS011;62526;50.948;6.590;2023-11-21T02:59:03;24.23;;;14.00;;
74170;SDS011;62526;50.948;6.590;2023-11-21T03:01:29;26.30;;;14.23;;
74170;SDS011;62526;50.948;6.590;2023-11-21T03:03:56;25.77;;;13.77;;
74170;SDS011;62526;50.948;6.590;2023-11-21T03:06:23;25.53;;;15.10;;
74170;SDS011;62526;50.948;6.590;2023-11-21T03:08:49;23.27;;;14.80;;
74170;SDS011;62526;50.948;6.590;2023-11-21T03:11:16;26.57;;;15.03;;
74170;SDS011;62526;50.948;6.590;2023-11-21T03:13:43;28.87;;;16.57;;
74170;SDS011;62526;50.948;6.590;2023-11-21T03:16:09;27.13;;;16.20;;
74170;SDS011;62526;50.948;6.590;2023-11-21T03:18:36;25.27;;;16.20;;
74170;SDS011;62526;50.948;6.590;2023-11-21T03:21:03;28.53;;;15.37;;
74170;SDS011;62526;50.948;6.590;2023-11-21T03:23:30;31.03;;;15.07;;
74170;SDS011;62526;50.948;6.590;2023-11-21T03:25:56;27.50;;;16.27;;
74170;SDS011;62526;50.948;6.590;2023-11-21T03:28:23;33.53;;;17.17;;
74170;SDS011;62526;50.948;6.590;2023-11-21T03:30:50;31.90;;;17.57;;
74170;SDS011;62526;50.948;6.590;2023-11-21T03:33:16;33.57;;;16.23;;
74170;SDS011;62526;50.948;6.590;2023-11-21T03:35:43;37.60;;;18.70;;
74170;SDS011;62526;50.948;6.590;2023-11-21T03:38:09;35.90;;;17.63;;
74170;SDS011;62526;50.948;6.590;2023-11-21T03:40:37;36.23;;;17.80;;
74170;SDS011;62526;50.948;6.590;2023-11-21T03:43:04;36.93;;;18.10;;
74170;SDS011;62526;50.948;6.590;2023-11-21T03:45:31;43.10;;;19.17;;
74170;SDS011;62526;50.948;6.590;2023-11-21T03:47:58;37.53;;;18.70;;
74170;SDS011;62526;50.948;6.590;2023-11-21T03:50:24;34.10;;;18.53;;
74170;SDS011;62526;50.948;6.590;2023-11-21T03:52:51;43.03;;;19.73;;
74170;SDS011;62526;50.948;6.590;2023-11-21T03:55:18;46.53;;;20.03;;
74170;SDS011;62526;50.948;6.590;2023-11-21T03:57:45;37.27;;;18.97;;
74170;SDS011;62526;50.948;6.590;2023-11-21T04:00:12;39.17;;;18.97;;
74170;SDS011;62526;50.948;6.590;2023-11-21T04:02:39;42.00;;;19.10;;
74170;SDS011;62526;50.948;6.590;2023-11-21T04:05:05;44.10;;;19.63;;
74170;SDS011;62526;50.948;6.590;2023-11-21T04:07:33;46.07;;;20.33;;
74170;SDS011;62526;50.948;6.590;2023-11-21T04:09:59;41.53;;;19.40;;
74170;SDS011;62526;50.948;6.590;2023-11-21T04:12:26;43.83;;;20.60;;
74170;SDS011;62526;50.948;6.590;2023-11-21T04:14:53;46.57;;;19.60;;
74170;SDS011;62526;50.948;6.590;2023-11-21T04:17:19;46.10;;;21.33;;
74170;SDS011;62526;50.948;6.590;2023-11-21T04:19:46;39.57;;;19.43;;
74170;SDS011;62526;50.948;6.590;2023-11-21T04:22:13;38.37;;;18.60;;
74170;SDS011;62526;50.948;6.590;2023-11-21T04:24:39;44.00;;;20.13;;
74170;SDS011;62526;50.948;6.590;2023-11-21T04:27:06;39.63;;;19.43;;
74170;SDS011;62526;50.948;6.590;2023-11-21T04:29:32;38.97;;;20.07;;
74170;SDS011;62526;50.948;6.590;2023-11-21T04:31:59;34.63;;;18.53;;
74170;SDS011;62526;50.948;6.590;2023-11-21T04:34:26;44.87;;;21.70;;
74170;SDS011;62526;50.948;6.590;2023-11-21T04:36:52;38.10;;;18.40;;
74170;SDS011;62526;50.948;6.590;2023-11-21T04:39:20;37.30;;;19.17;;
74170;SDS011;62526;50.948;6.590;2023-11-21T04:41:46;37.60;;;18.80;;
74170;SDS011;62526;50.948;6.590;2023-11-21T04:44:13;35.70;;;17.13;;
74170;SDS011;62526;50.948;6.590;2023-11-21T04:46:40;34.33;;;17.83;;
74170;SDS011;62526;50.948;6.590;2023-11-21T04:49:06;30.37;;;17.43;;
74170;SDS011;62526;50.948;6.590;2023-11-21T04:51:33;32.00;;;15.93;;
74170;SDS011;62526;50.948;6.590;2023-11-21T04:54:14;37.60;;;18.40;;
74170;SDS011;62526;50.948;6.590;2023-11-21T04:56:41;30.90;;;16.43;;
74170;SDS011;62526;50.948;6.590;2023-11-21T04:59:07;33.20;;;15.50;;
74170;SDS011;62526;50.948;6.590;2023-11-21T05:01:34;34.73;;;17.93;;
74170;SDS011;62526;50.948;6.590;2023-11-21T05:04:00;40.23;;;18.50;;
74170;SDS011;62526;50.948;6.590;2023-11-21T05:06:27;37.23;;;17.37;;
74170;SDS011;62526;50.948;6.590;2023-11-21T05:08:54;37.23;;;17.93;;
74170;SDS011;62526;50.948;6.590;2023-11-21T05:11:23;38.73;;;18.10;;
74170;SDS011;62526;50.948;6.590;2023-11-21T05:13:50;36.20;;;19.10;;
74170;SDS011;62526;50.948;6.590;2023-11-21T05:16:16;35.00;;;17.50;;
74170;SDS011;62526;50.948;6.590;2023-11-21T05:18:44;39.07;;;17.03;;
74170;SDS011;62526;50.948;6.590;2023-11-21T05:21:10;33.87;;;17.80;;
74170;SDS011;62526;50.948;6.590;2023-11-21T05:23:37;29.70;;;16.80;;
74170;SDS011;62526;50.948;6.590;2023-11-21T05:26:04;31.80;;;16.07;;
74170;SDS011;62526;50.948;6.590;2023-11-21T05:28:31;35.37;;;16.90;;
74170;SDS011;62526;50.948;6.590;2023-11-21T05:30:58;30.27;;;16.30;;
74170;SDS011;62526;50.948;6.590;2023-11-21T05:33:24;38.87;;;18.50;;
74170;SDS011;62526;50.948;6.590;2023-11-21T05:35:51;31.13;;;15.90;;
74170;SDS011;62526;50.948;6.590;2023-11-21T05:38:18;31.53;;;16.97;;
74170;SDS011;62526;50.948;6.590;2023-11-21T05:40:45;32.43;;;16.83;;
74170;SDS011;62526;50.948;6.590;2023-11-21T05:43:13;33.87;;;16.70;;
74170;SDS011;62526;50.948;6.590;2023-11-21T05:45:39;30.93;;;16.10;;
74170;SDS011;62526;50.948;6.590;2023-11-21T05:48:06;31.83;;;17.20;;
74170;SDS011;62526;50.948;6.590;2023-11-21T05:50:32;30.30;;;16.50;;
74170;SDS011;62526;50.948;6.590;2023-11-21T05:53:00;28.40;;;15.23;;
74170;SDS011;62526;50.948;6.590;2023-11-21T05:55:27;30.57;;;15.70;;
74170;SDS011;62526;50.948;6.590;2023-11-21T05:57:54;30.03;;;15.50;;
74170;SDS011;62526;50.948;6.590;2023-11-21T06:00:21;31.90;;;14.43;;
74170;SDS011;62526;50.948;6.590;2023-11-21T06:02:48;24.77;;;13.83;;
74170;SDS011;62526;50.948;6.590;2023-11-21T06:05:16;30.83;;;15.63;;
74170;SDS011;62526;50.948;6.590;2023-11-21T06:07:42;36.63;;;16.03;;
74170;SDS011;62526;50.948;6.590;2023-11-21T06:10:10;26.27;;;15.20;;
74170;SDS011;62526;50.948;6.590;2023-11-21T06:12:36;34.40;;;16.43;;
74170;SDS011;62526;50.948;6.590;2023-11-21T06:15:04;27.77;;;15.43;;
74170;SDS011;62526;50.948;6.590;2023-11-21T06:17:31;29.20;;;15.77;;
74170;SDS011;62526;50.948;6.590;2023-11-21T06:19:57;32.17;;;15.47;;
74170;SDS011;62526;50.948;6.590;2023-11-21T06:22:24;29.90;;;14.60;;
74170;SDS011;62526;50.948;6.590;2023-11-21T06:24:50;26.80;;;14.70;;
74170;SDS011;62526;50.948;6.590;2023-11-21T06:27:17;28.80;;;15.47;;
74170;SDS011;62526;50.948;6.590;2023-11-21T06:29:44;28.13;;;13.73;;
74170;SDS011;62526;50.948;6.590;2023-11-21T06:32:10;37.10;;;16.00;;
74170;SDS011;62526;50.948;6.590;2023-11-21T06:34:37;32.60;;;15.63;;
74170;SDS011;62526;50.948;6.590;2023-11-21T06:37:03;30.23;;;14.37;;
74170;SDS011;62526;50.948;6.590;2023-11-21T06:39:30;33.77;;;15.43;;
74170;SDS011;62526;50.948;6.590;2023-11-21T06:41:57;30.17;;;16.17;;
74170;SDS011;62526;50.948;6.590;2023-11-21T06:44:23;31.93;;;15.93;;
74170;SDS011;62526;50.948;6.590;2023-11-21T06:46:50;30.47;;;15.73;;
74170;SDS011;62526;50.948;6.590;2023-11-21T06:49:17;32.07;;;15.07;;
74170;SDS011;62526;50.948;6.590;2023-11-21T06:51:43;33.93;;;14.30;;
74170;SDS011;62526;50.948;6.590;2023-11-21T06:54:13;31.13;;;16.47;;
74170;SDS011;62526;50.948;6.590;2023-11-21T06:56:39;34.40;;;17.67;;
74170;SDS011;62526;50.948;6.590;2023-11-21T06:59:06;36.93;;;15.53;;
74170;SDS011;62526;50.948;6.590;2023-11-21T07:01:33;34.60;;;16.10;;
74170;SDS011;62526;50.948;6.590;2023-11-21T07:03:59;36.77;;;16.27;;
74170;SDS011;62526;50.948;6.590;2023-11-21T07:06:26;30.63;;;16.10;;
74170;SDS011;62526;50.948;6.590;2023-11-21T07:08:53;33.60;;;16.00;;
74170;SDS011;62526;50.948;6.590;2023-11-21T07:11:20;35.53;;;16.37;;
74170;SDS011;62526;50.948;6.590;2023-11-21T07:13:47;36.70;;;16.13;;
74170;SDS011;62526;50.948;6.590;2023-11-21T07:16:13;32.27;;;16.33;;
74170;SDS011;62526;50.948;6.590;2023-11-21T07:18:40;35.43;;;16.03;;
74170;SDS011;62526;50.948;6.590;2023-11-21T07:21:07;29.83;;;15.87;;
74170;SDS011;62526;50.948;6.590;2023-11-21T07:23:33;32.77;;;16.80;;
74170;SDS011;62526;50.948;6.590;2023-11-21T07:26:00;48.47;;;16.87;;
74170;SDS011;62526;50.948;6.590;2023-11-21T07:28:27;39.07;;;17.50;;
74170;SDS011;62526;50.948;6.590;2023-11-21T07:30:54;38.10;;;17.60;;
74170;SDS011;62526;50.948;6.590;2023-11-21T07:33:21;35.27;;;16.97;;
74170;SDS011;62526;50.948;6.590;2023-11-21T07:35:47;35.97;;;18.10;;
74170;SDS011;62526;50.948;6.590;2023-11-21T07:38:14;43.40;;;19.73;;
74170;SDS011;62526;50.948;6.590;2023-11-21T07:40:40;34.90;;;16.83;;
74170;SDS011;62526;50.948;6.590;2023-11-21T07:43:07;37.37;;;16.80;;
74170;SDS011;62526;50.948;6.590;2023-11-21T07:45:34;43.03;;;18.27;;
74170;SDS011;62526;50.948;6.590;2023-11-21T07:48:00;35.70;;;16.47;;
74170;SDS011;62526;50.948;6.590;2023-11-21T07:50:27;37.73;;;16.90;;
74170;SDS011;62526;50.948;6.590;2023-11-21T07:52:54;40.13;;;17.93;;
74170;SDS011;62526;50.948;6.590;2023-11-21T07:55:20;38.73;;;17.33;;
74170;SDS011;62526;50.948;6.590;2023-11-21T07:57:47;35.90;;;16.70;;
74170;SDS011;62526;50.948;6.590;2023-11-21T08:00:14;32.83;;;16.47;;
74170;SDS011;62526;50.948;6.590;2023-11-21T08:02:41;34.43;;;17.37;;
74170;SDS011;62526;50.948;6.590;2023-11-21T08:05:08;34.60;;;15.27;;
74170;SDS011;62526;50.948;6.590;2023-11-21T08:07:35;46.27;;;17.90;;
74170;SDS011;62526;50.948;6.590;2023-11-21T08:10:02;37.40;;;16.50;;
74170;SDS011;62526;50.948;6.590;2023-11-21T08:12:29;47.03;;;19.23;;
74170;SDS011;62526;50.948;6.590;2023-11-21T08:14:55;40.87;;;18.30;;
74170;SDS011;62526;50.948;6.590;2023-11-21T08:17:22;41.23;;;19.10;;
74170;SDS011;62526;50.948;6.590;2023-11-21T08:19:49;50.17;;;20.30;;
74170;SDS011;62526;50.948;6.590;2023-11-21T08:22:15;46.93;;;18.83;;
74170;SDS011;62526;50.948;6.590;2023-11-21T08:24:42;40.37;;;16.80;;
74170;SDS011;62526;50.948;6.590;2023-11-21T08:27:09;45.40;;;19.60;;
74170;SDS011;62526;50.948;6.590;2023-11-21T08:29:36;54.23;;;20.93;;
74170;SDS011;62526;50.948;6.590;2023-11-21T08:32:03;49.33;;;19.50;;
74170;SDS011;62526;50.948;6.590;2023-11-21T08:34:30;58.20;;;20.70;;
74170;SDS011;62526;50.948;6.590;2023-11-21T08:36:57;65.33;;;22.67;;
74170;SDS011;62526;50.948;6.590;2023-11-21T08:39:24;52.17;;;20.60;;
74170;SDS011;62526;50.948;6.590;2023-11-21T08:41:51;51.87;;;20.53;;
74170;SDS011;62526;50.948;6.590;2023-11-21T08:44:17;46.53;;;17.33;;
74170;SDS011;62526;50.948;6.590;2023-11-21T08:46:45;45.83;;;16.87;;
74170;SDS011;62526;50.948;6.590;2023-11-21T08:49:12;47.00;;;17.30;;
74170;SDS011;62526;50.948;6.590;2023-11-21T08:51:38;43.73;;;16.20;;
74170;SDS011;62526;50.948;6.590;2023-11-21T08:54:06;45.10;;;17.57;;
74170;SDS011;62526;50.948;6.590;2023-11-21T08:56:33;39.80;;;13.10;;
74170;SDS011;62526;50.948;6.590;2023-11-21T08:59:00;45.33;;;18.13;;
74170;SDS011;62526;50.948;6.590;2023-11-21T09:01:27;42.53;;;16.73;;
74170;SDS011;62526;50.948;6.590;2023-11-21T09:03:54;46.23;;;17.90;;
74170;SDS011;62526;50.948;6.590;2023-11-21T09:06:20;46.07;;;16.73;;
74170;SDS011;62526;50.948;6.590;2023-11-21T09:08:47;50.37;;;17.97;;
74170;SDS011;62526;50.948;6.590;2023-11-21T09:11:14;52.27;;;15.90;;
74170;SDS011;62526;50.948;6.590;2023-11-21T09:13:40;59.40;;;19.53;;
74170;SDS011;62526;50.948;6.590;2023-11-21T09:16:07;44.73;;;17.23;;
74170;SDS011;62526;50.948;6.590;2023-11-21T09:18:34;44.57;;;15.60;;
74170;SDS011;62526;50.948;6.590;2023-11-21T09:21:01;41.57;;;14.83;;
74170;SDS011;62526;50.948;6.590;2023-11-21T09:23:28;33.63;;;14.13;;
74170;SDS011;62526;50.948;6.590;2023-11-21T09:25:54;42.70;;;16.90;;
74170;SDS011;62526;50.948;6.590;2023-11-21T09:28:21;42.80;;;16.43;;
74170;SDS011;62526;50.948;6.590;2023-11-21T09:30:48;46.47;;;14.83;;
74170;SDS011;62526;50.948;6.590;2023-11-21T09:33:15;51.77;;;17.63;;
74170;SDS011;62526;50.948;6.590;2023-11-21T09:35:41;51.17;;;16.83;;
74170;SDS011;62526;50.948;6.590;2023-11-21T09:38:08;47.27;;;16.43;;
74170;SDS011;62526;50.948;6.590;2023-11-21T09:40:35;60.17;;;17.97;;
74170;SDS011;62526;50.948;6.590;2023-11-21T09:43:05;50.50;;;17.37;;
74170;SDS011;62526;50.948;6.590;2023-11-21T09:45:34;39.33;;;13.73;;
74170;SDS011;62526;50.948;6.590;2023-11-21T09:48:01;52.40;;;17.73;;
74170;SDS011;62526;50.948;6.590;2023-11-21T09:50:28;60.90;;;18.20;;
74170;SDS011;62526;50.948;6.590;2023-11-21T09:53:04;39.57;;;16.00;;
74170;SDS011;62526;50.948;6.590;2023-11-21T09:55:43;47.23;;;17.00;;
74170;SDS011;62526;50.948;6.590;2023-11-21T09:58:09;52.20;;;17.50;;
74170;SDS011;62526;50.948;6.590;2023-11-21T10:00:35;45.17;;;17.13;;
74170;SDS011;62526;50.948;6.590;2023-11-21T10:03:02;51.17;;;17.50;;
74170;SDS011;62526;50.948;6.590;2023-11-21T10:05:29;50.50;;;17.43;;
74170;SDS011;62526;50.948;6.590;2023-11-21T10:07:55;49.13;;;16.90;;
74170;SDS011;62526;50.948;6.590;2023-11-21T10:10:22;51.60;;;16.57;;
74170;SDS011;62526;50.948;6.590;2023-11-21T10:12:50;49.40;;;16.13;;
74170;SDS011;62526;50.948;6.590;2023-11-21T10:15:18;47.57;;;17.03;;
74170;SDS011;62526;50.948;6.590;2023-11-21T10:17:45;44.70;;;15.80;;
74170;SDS011;62526;50.948;6.590;2023-11-21T10:20:11;44.87;;;15.70;;
74170;SDS011;62526;50.948;6.590;2023-11-21T10:22:41;48.83;;;15.97;;
74170;SDS011;62526;50.948;6.590;2023-11-21T10:25:07;39.27;;;15.20;;
74170;SDS011;62526;50.948;6.590;2023-11-21T10:27:34;47.50;;;17.13;;
74170;SDS011;62526;50.948;6.590;2023-11-21T10:30:02;55.57;;;17.97;;
74170;SDS011;62526;50.948;6.590;2023-11-21T10:32:30;56.60;;;16.73;;
74170;SDS011;62526;50.948;6.590;2023-11-21T10:34:57;55.60;;;18.47;;
74170;SDS011;62526;50.948;6.590;2023-11-21T10:37:26;49.83;;;17.07;;
74170;SDS011;62526;50.948;6.590;2023-11-21T10:39:56;52.00;;;16.90;;
74170;SDS011;62526;50.948;6.590;2023-11-21T10:42:26;44.87;;;16.17;;
74170;SDS011;62526;50.948;6.590;2023-11-21T10:44:53;41.30;;;16.57;;
74170;SDS011;62526;50.948;6.590;2023-11-21T10:47:19;56.63;;;18.17;;
74170;SDS011;62526;50.948;6.590;2023-11-21T10:49:48;36.27;;;15.70;;
74170;SDS011;62526;50.948;6.590;2023-11-21T10:52:14;39.67;;;16.23;;
74170;SDS011;62526;50.948;6.590;2023-11-21T10:54:42;40.37;;;15.67;;
74170;SDS011;62526;50.948;6.590;2023-11-21T10:57:09;44.43;;;15.67;;
74170;SDS011;62526;50.948;6.590;2023-11-21T10:59:35;47.43;;;16.27;;
74170;SDS011;62526;50.948;6.590;2023-11-21T11:04:30;43.80;;;16.13;;
74170;SDS011;62526;50.948;6.590;2023-11-21T11:06:57;40.77;;;16.40;;
74170;SDS011;62526;50.948;6.590;2023-11-21T11:09:23;41.03;;;15.87;;
74170;SDS011;62526;50.948;6.590;2023-11-21T11:11:50;46.30;;;17.53;;
74170;SDS011;62526;50.948;6.590;2023-11-21T11:14:16;38.50;;;14.70;;
74170;SDS011;62526;50.948;6.590;2023-11-21T11:16:43;38.03;;;14.80;;
74170;SDS011;62526;50.948;6.590;2023-11-21T11:19:10;34.50;;;14.00;;
74170;SDS011;62526;50.948;6.590;2023-11-21T11:21:45;36.67;;;13.97;;
74170;SDS011;62526;50.948;6.590;2023-11-21T11:24:33;31.90;;;13.53;;
74170;SDS011;62526;50.948;6.590;2023-11-21T11:27:12;38.40;;;15.23;;
74170;SDS011;62526;50.948;6.590;2023-11-21T11:32:18;40.20;;;13.80;;
74170;SDS011;62526;50.948;6.590;2023-11-21T11:34:52;35.40;;;13.10;;
74170;SDS011;62526;50.948;6.590;2023-11-21T11:37:16;33.40;;;14.43;;
74170;SDS011;62526;50.948;6.590;2023-11-21T11:39:44;37.03;;;15.03;;
74170;SDS011;62526;50.948;6.590;2023-11-21T11:42:12;31.60;;;15.18;;
74170;SDS011;62526;50.948;6.590;2023-11-21T11:44:48;32.50;;;14.03;;
74170;SDS011;62526;50.948;6.590;2023-11-21T11:47:24;28.13;;;12.97;;
74170;SDS011;62526;50.948;6.590;2023-11-21T11:49:58;34.73;;;12.37;;
74170;SDS011;62526;50.948;6.590;2023-11-21T11:52:32;30.70;;;13.70;;
74170;SDS011;62526;50.948;6.590;2023-11-21T11:55:02;25.47;;;11.97;;
74170;SDS011;62526;50.948;6.590;2023-11-21T11:57:32;32.97;;;14.73;;
74170;SDS011;62526;50.948;6.590;2023-11-21T12:00:08;30.95;;;12.98;;
74170;SDS011;62526;50.948;6.590;2023-11-21T12:02:45;31.10;;;11.38;;
74170;SDS011;62526;50.948;6.590;2023-11-21T12:05:22;24.37;;;11.10;;
74170;SDS011;62526;50.948;6.590;2023-11-21T12:07:50;31.03;;;12.47;;
74170;SDS011;62526;50.948;6.590;2023-11-21T12:10:21;29.33;;;13.55;;
74170;SDS011;62526;50.948;6.590;2023-11-21T12:12:48;29.87;;;10.90;;
74170;SDS011;62526;50.948;6.590;2023-11-21T12:15:16;25.85;;;11.65;;
74170;SDS011;62526;50.948;6.590;2023-11-21T12:17:43;25.60;;;12.37;;
74170;SDS011;62526;50.948;6.590;2023-11-21T12:20:09;38.25;;;13.48;;
74170;SDS011;62526;50.948;6.590;2023-11-21T12:22:42;28.67;;;13.18;;
74170;SDS011;62526;50.948;6.590;2023-11-21T12:25:10;35.50;;;12.60;;
74170;SDS011;62526;50.948;6.590;2023-11-21T12:27:37;31.10;;;12.77;;
74170;SDS011;62526;50.948;6.590;2023-11-21T12:30:05;30.17;;;12.30;;
74170;SDS011;62526;50.948;6.590;2023-11-21T12:32:32;28.48;;;11.57;;
74170;SDS011;62526;50.948;6.590;2023-11-21T12:34:58;29.20;;;11.43;;
74170;SDS011;62526;50.948;6.590;2023-11-21T12:37:25;24.40;;;10.52;;
74170;SDS011;62526;50.948;6.590;2023-11-21T12:39:52;23.20;;;10.43;;
74170;SDS011;62526;50.948;6.590;2023-11-21T12:42:18;25.20;;;9.75;;
74170;SDS011;62526;50.948;6.590;2023-11-21T12:44:45;26.70;;;11.38;;
74170;SDS011;62526;50.948;6.590;2023-11-21T12:47:15;28.35;;;11.27;;
74170;SDS011;62526;50.948;6.590;2023-11-21T12:49:39;22.25;;;9.65;;
74170;SDS011;62526;50.948;6.590;2023-11-21T12:52:06;23.35;;;9.60;;
74170;SDS011;62526;50.948;6.590;2023-11-21T12:54:32;21.65;;;9.60;;
74170;SDS011;62526;50.948;6.590;2023-11-21T12:56:59;25.88;;;10.75;;
74170;SDS011;62526;50.948;6.590;2023-11-21T12:59:26;24.15;;;9.27;;
74170;SDS011;62526;50.948;6.590;2023-11-21T13:01:53;31.12;;;11.63;;
74170;SDS011;62526;50.948;6.590;2023-11-21T13:04:19;21.23;;;9.45;;
74170;SDS011;62526;50.948;6.590;2023-11-21T13:06:46;24.10;;;10.00;;
74170;SDS011;62526;50.948;6.590;2023-11-21T13:09:13;21.08;;;10.25;;
74170;SDS011;62526;50.948;6.590;2023-11-21T13:11:40;24.75;;;10.23;;
74170;SDS011;62526;50.948;6.590;2023-11-21T13:14:07;29.20;;;10.50;;
74170;SDS011;62526;50.948;6.590;2023-11-21T13:16:34;26.15;;;9.75;;
74170;SDS011;62526;50.948;6.590;2023-11-21T13:19:01;27.30;;;11.67;;
74170;SDS011;62526;50.948;6.590;2023-11-21T13:21:28;24.80;;;10.85;;
74170;SDS011;62526;50.948;6.590;2023-11-21T13:23:55;21.03;;;9.53;;
74170;SDS011;62526;50.948;6.590;2023-11-21T13:26:21;29.30;;;12.00;;
74170;SDS011;62526;50.948;6.590;2023-11-21T13:28:48;29.27;;;11.60;;
74170;SDS011;62526;50.948;6.590;2023-11-21T13:31:15;23.80;;;9.43;;
74170;SDS011;62526;50.948;6.590;2023-11-21T13:33:47;28.17;;;10.40;;
74170;SDS011;62526;50.948;6.590;2023-11-21T13:36:13;25.83;;;10.80;;
74170;SDS011;62526;50.948;6.590;2023-11-21T13:38:40;23.20;;;9.77;;
74170;SDS011;62526;50.948;6.590;2023-11-21T13:41:07;27.10;;;9.83;;
74170;SDS011;62526;50.948;6.590;2023-11-21T13:43:35;33.63;;;10.27;;
74170;SDS011;62526;50.948;6.590;2023-11-21T13:46:02;24.97;;;10.20;;
74170;SDS011;62526;50.948;6.590;2023-11-21T13:48:28;28.73;;;10.10;;
74170;SDS011;62526;50.948;6.590;2023-11-21T13:50:58;25.20;;;9.27;;
74170;SDS011;62526;50.948;6.590;2023-11-21T13:53:24;23.47;;;9.87;;
74170;SDS011;62526;50.948;6.590;2023-11-21T13:55:51;24.08;;;8.50;;
74170;SDS011;62526;50.948;6.590;2023-11-21T13:58:18;30.13;;;10.03;;
74170;SDS011;62526;50.948;6.590;2023-11-21T14:00:45;25.83;;;9.40;;
74170;SDS011;62526;50.948;6.590;2023-11-21T14:03:12;29.73;;;11.90;;
74170;SDS011;62526;50.948;6.590;2023-11-21T14:05:43;27.77;;;9.73;;
74170;SDS011;62526;50.948;6.590;2023-11-21T14:08:10;26.50;;;9.47;;
74170;SDS011;62526;50.948;6.590;2023-11-21T14:10:37;20.73;;;9.73;;
74170;SDS011;62526;50.948;6.590;2023-11-21T14:13:06;29.00;;;11.07;;
74170;SDS011;62526;50.948;6.590;2023-11-21T14:15:33;25.00;;;10.87;;
74170;SDS011;62526;50.948;6.590;2023-11-21T14:18:00;31.23;;;10.60;;
74170;SDS011;62526;50.948;6.590;2023-11-21T14:20:26;24.47;;;10.43;;
74170;SDS011;62526;50.948;6.590;2023-11-21T14:22:53;30.83;;;10.87;;
74170;SDS011;62526;50.948;6.590;2023-11-21T14:25:20;34.22;;;11.48;;
74170;SDS011;62526;50.948;6.590;2023-11-21T14:27:46;25.58;;;11.10;;